Time,TemperatureF,DewpointF,PressureIn,WindDirection,WindDirectionDegrees,WindSpeedMPH,WindSpeedGustMPH,Humidity,HourlyPrecipIn,Conditions,Clouds,dailyrainin,SoftwareType,DateUTC
2013-05-09 00:02:00,50.0,49.7,29.92,SSW,202,3.7,-999.0,99,-99.99,,,0.00,Acu-Link.com,2013-05-09 04:02:00,
2013-05-09 00:17:00,50.0,49.7,29.92,WNW,292,1.7,-999.0,99,-99.99,,,0.00,Acu-Link.com,2013-05-09 04:17:00,
2013-05-09 00:32:00,50.0,49.7,29.92,SSW,202,4.2,-999.0,99,-99.99,,,0.00,Acu-Link.com,2013-05-09 04:32:00,
2013-05-09 00:48:00,50.0,49.7,29.91,SSE,157,2.7,-999.0,99,-99.99,,,0.01,Acu-Link.com,2013-05-09 04:48:00,
2013-05-09 01:03:00,50.0,49.7,29.91,SE,135,3.7,-999.0,99,-99.99,,,0.01,Acu-Link.com,2013-05-09 05:03:00,
2013-05-09 01:18:00,49.8,49.5,29.91,ESE,112,2.7,-999.0,99,-99.99,,,0.01,Acu-Link.com,2013-05-09 05:18:00,
2013-05-09 01:33:00,49.6,49.3,29.90,SW,225,2.2,-999.0,99,-99.99,,,0.01,Acu-Link.com,2013-05-09 05:33:00,
2013-05-09 01:48:00,49.8,49.5,29.89,South,180,2.2,-999.0,99,-99.99,,,0.01,Acu-Link.com,2013-05-09 05:48:00,
2013-05-09 02:04:00,50.2,49.9,29.89,SSW,202,0.0,-999.0,99,-99.99,,,0.01,Acu-Link.com,2013-05-09 06:04:00,
2013-05-09 02:19:00,50.4,50.1,29.88,ESE,112,7.3,-999.0,99,-99.99,,,0.01,Acu-Link.com,2013-05-09 06:19:00,
2013-05-09 02:34:00,50.4,50.1,29.88,SW,225,3.7,-999.0,99,-99.99,,,0.01,Acu-Link.com,2013-05-09 06:34:00,
2013-05-09 02:50:00,50.4,50.1,29.88,South,180,4.7,-999.0,99,-99.99,,,0.01,Acu-Link.com,2013-05-09 06:50:00,
2013-05-09 03:05:00,50.4,50.1,29.88,West,270,3.7,-999.0,99,-99.99,,,0.01,Acu-Link.com,2013-05-09 07:05:00,
2013-05-09 03:20:00,50.5,50.2,29.88,WSW,247,4.7,-999.0,99,-99.99,,,0.01,Acu-Link.com,2013-05-09 07:20:00,
2013-05-09 03:35:00,50.5,50.2,29.88,West,270,3.7,-999.0,99,-99.99,,,0.01,Acu-Link.com,2013-05-09 07:35:00,
2013-05-09 03:50:00,50.5,50.2,29.88,West,270,1.7,-999.0,99,-99.99,,,0.01,Acu-Link.com,2013-05-09 07:50:00,
2013-05-09 04:07:00,50.5,50.2,29.87,SSW,202,4.7,-999.0,99,-99.99,,,0.01,Acu-Link.com,2013-05-09 08:07:00,
2013-05-09 04:22:00,50.5,50.2,29.87,SSW,202,1.7,-999.0,99,-99.99,,,0.02,Acu-Link.com,2013-05-09 08:22:00,
2013-05-09 04:37:00,50.5,50.2,29.86,SSW,202,4.2,-999.0,99,-99.99,,,0.02,Acu-Link.com,2013-05-09 08:37:00,
2013-05-09 04:52:00,50.5,50.2,29.86,WNW,292,2.7,-999.0,99,-99.99,,,0.02,Acu-Link.com,2013-05-09 08:52:00,
2013-05-09 05:07:00,50.4,50.1,29.87,WSW,247,2.2,-999.0,99,-99.99,,,0.02,Acu-Link.com,2013-05-09 09:07:00,
2013-05-09 05:22:00,50.0,49.7,29.88,West,270,0.0,-999.0,99,-99.99,,,0.02,Acu-Link.com,2013-05-09 09:22:00,
2013-05-09 05:38:00,49.8,49.5,29.87,West,270,2.7,-999.0,99,-99.99,,,0.02,Acu-Link.com,2013-05-09 09:38:00,
2013-05-09 05:53:00,50.2,49.9,29.87,WSW,247,2.7,-999.0,99,-99.99,,,0.02,Acu-Link.com,2013-05-09 09:53:00,
2013-05-09 06:08:00,50.2,49.9,29.87,NNW,337,2.7,-999.0,99,-99.99,,,0.02,Acu-Link.com,2013-05-09 10:08:00,
2013-05-09 06:23:00,50.4,50.1,29.89,SW,225,4.2,-999.0,99,-99.99,,,0.02,Acu-Link.com,2013-05-09 10:23:00,
2013-05-09 06:38:00,50.4,50.1,29.89,WSW,247,3.2,-999.0,99,-99.99,,,0.02,Acu-Link.com,2013-05-09 10:38:00,
2013-05-09 06:54:00,50.4,50.1,29.90,WSW,247,2.7,-999.0,99,-99.99,,,0.02,Acu-Link.com,2013-05-09 10:54:00,
2013-05-09 07:09:00,50.5,50.2,29.91,West,270,2.7,-999.0,99,-99.99,,,0.02,Acu-Link.com,2013-05-09 11:09:00,
2013-05-09 07:24:00,51.1,50.8,29.91,West,270,4.2,-999.0,99,-99.99,,,0.02,Acu-Link.com,2013-05-09 11:24:00,
2013-05-09 07:39:00,51.4,51.1,29.92,West,270,4.2,-999.0,99,-99.99,,,0.02,Acu-Link.com,2013-05-09 11:39:00,
2013-05-09 07:54:00,51.8,51.5,29.93,West,270,3.7,-999.0,99,-99.99,,,0.02,Acu-Link.com,2013-05-09 11:54:00,
2013-05-09 08:10:00,52.2,51.9,29.94,SSW,202,1.7,-999.0,99,-99.99,,,0.02,Acu-Link.com,2013-05-09 12:10:00,
2013-05-09 08:25:00,52.2,51.9,29.95,West,270,5.3,-999.0,99,-99.99,,,0.02,Acu-Link.com,2013-05-09 12:25:00,
2013-05-09 08:40:00,53.2,52.9,29.96,WNW,292,7.3,-999.0,99,-99.99,,,0.02,Acu-Link.com,2013-05-09 12:40:00,
2013-05-09 08:55:00,53.8,53.2,29.94,WSW,247,4.2,-999.0,98,-99.99,,,0.02,Acu-Link.com,2013-05-09 12:55:00,
2013-05-09 09:10:00,54.7,53.6,29.96,WNW,292,4.7,-999.0,96,-99.99,,,0.02,Acu-Link.com,2013-05-09 13:10:00,
2013-05-09 09:26:00,54.5,53.4,29.96,WNW,292,4.7,-999.0,96,-99.99,,,0.02,Acu-Link.com,2013-05-09 13:26:00,
2013-05-09 09:41:00,55.8,54.4,29.97,West,270,3.2,-999.0,95,-99.99,,,0.02,Acu-Link.com,2013-05-09 13:41:00,
2013-05-09 09:56:00,55.2,53.8,29.96,West,270,7.3,-999.0,95,-99.99,,,0.02,Acu-Link.com,2013-05-09 13:56:00,
2013-05-09 10:11:00,54.9,54.1,29.96,West,270,6.3,-999.0,97,-99.99,,,0.02,Acu-Link.com,2013-05-09 14:11:00,
2013-05-09 10:27:00,54.7,53.9,29.96,West,270,3.7,-999.0,97,-99.99,,,0.02,Acu-Link.com,2013-05-09 14:27:00,
2013-05-09 10:42:00,55.2,54.4,29.96,WNW,292,7.3,-999.0,97,-99.99,,,0.02,Acu-Link.com,2013-05-09 14:42:00,
2013-05-09 10:57:00,55.4,54.3,29.96,West,270,4.2,-999.0,96,-99.99,,,0.02,Acu-Link.com,2013-05-09 14:57:00,
2013-05-09 11:12:00,56.7,54.7,29.96,West,270,6.3,-999.0,93,-99.99,,,0.02,Acu-Link.com,2013-05-09 15:12:00,
2013-05-09 11:27:00,56.7,54.7,29.96,SW,225,6.8,-999.0,93,-99.99,,,0.02,Acu-Link.com,2013-05-09 15:27:00,
2013-05-09 11:43:00,56.7,55.0,29.96,West,270,4.7,-999.0,94,-99.99,,,0.02,Acu-Link.com,2013-05-09 15:43:00,
2013-05-09 11:58:00,56.5,54.8,29.97,West,270,7.8,-999.0,94,-99.99,,,0.02,Acu-Link.com,2013-05-09 15:58:00,
2013-05-09 12:13:00,57.7,55.1,29.97,West,270,6.8,-999.0,91,-99.99,,,0.02,Acu-Link.com,2013-05-09 16:13:00,
2013-05-09 12:28:00,60.4,56.2,29.96,WNW,292,5.8,-999.0,86,-99.99,,,0.02,Acu-Link.com,2013-05-09 16:28:00,
2013-05-09 12:43:00,60.4,56.2,29.97,West,270,6.8,-999.0,86,-99.99,,,0.02,Acu-Link.com,2013-05-09 16:43:00,
2013-05-09 12:59:00,60.4,55.9,29.97,SE,135,8.9,-999.0,85,-99.99,,,0.02,Acu-Link.com,2013-05-09 16:59:00,
2013-05-09 13:14:00,61.3,55.4,29.97,West,270,7.8,-999.0,81,-99.99,,,0.02,Acu-Link.com,2013-05-09 17:14:00,
2013-05-09 13:29:00,62.8,56.2,29.97,West,270,5.8,-999.0,79,-99.99,,,0.02,Acu-Link.com,2013-05-09 17:29:00,
2013-05-09 13:44:00,64.4,56.3,29.97,West,270,5.3,-999.0,75,-99.99,,,0.02,Acu-Link.com,2013-05-09 17:44:00,
2013-05-09 14:00:00,64.2,56.1,29.97,West,270,5.8,-999.0,75,-99.99,,,0.02,Acu-Link.com,2013-05-09 18:00:00,
2013-05-09 14:15:00,62.8,55.1,29.97,West,270,8.9,-999.0,76,-99.99,,,0.02,Acu-Link.com,2013-05-09 18:15:00,
2013-05-09 14:30:00,64.2,55.4,29.97,West,270,6.8,-999.0,73,-99.99,,,0.02,Acu-Link.com,2013-05-09 18:30:00,
2013-05-09 14:45:00,64.6,56.1,29.97,West,270,7.3,-999.0,74,-99.99,,,0.02,Acu-Link.com,2013-05-09 18:45:00,
2013-05-09 15:00:00,63.3,54.9,29.97,WNW,292,4.2,-999.0,74,-99.99,,,0.02,Acu-Link.com,2013-05-09 19:00:00,
2013-05-09 15:16:00,64.2,56.1,29.96,West,270,4.7,-999.0,75,-99.99,,,0.02,Acu-Link.com,2013-05-09 19:16:00,
2013-05-09 15:31:00,65.1,57.0,29.96,West,270,4.2,-999.0,75,-99.99,,,0.02,Acu-Link.com,2013-05-09 19:31:00,
2013-05-09 15:46:00,64.0,56.6,29.97,West,270,6.3,-999.0,77,-99.99,,,0.02,Acu-Link.com,2013-05-09 19:46:00,
2013-05-09 16:02:00,62.8,56.9,29.96,WNW,292,5.8,-999.0,81,-99.99,,,0.02,Acu-Link.com,2013-05-09 20:02:00,
2013-05-09 16:17:00,62.8,57.2,29.96,West,270,3.7,-999.0,82,-99.99,,,0.02,Acu-Link.com,2013-05-09 20:17:00,
2013-05-09 16:32:00,59.7,56.8,29.98,WSW,247,6.8,-999.0,90,-99.99,,,0.02,Acu-Link.com,2013-05-09 20:32:00,
2013-05-09 16:47:00,58.6,56.6,29.97,WSW,247,2.2,-999.0,93,-99.99,,,0.03,Acu-Link.com,2013-05-09 20:47:00,
2013-05-09 17:03:00,59.7,57.1,29.97,ENE,67,0.0,-999.0,91,-99.99,,,0.03,Acu-Link.com,2013-05-09 21:03:00,
2013-05-09 17:18:00,60.4,56.5,29.96,SE,135,0.0,-999.0,87,-99.99,,,0.03,Acu-Link.com,2013-05-09 21:18:00,
2013-05-09 17:33:00,62.1,56.9,29.96,NNW,337,1.1,-999.0,83,-99.99,,,0.03,Acu-Link.com,2013-05-09 21:33:00,
2013-05-09 17:48:00,65.5,58.5,29.96,NW,315,3.7,-999.0,78,-99.99,,,0.03,Acu-Link.com,2013-05-09 21:48:00,
2013-05-09 18:03:00,66.7,57.8,29.96,WSW,247,2.7,-999.0,73,-99.99,,,0.03,Acu-Link.com,2013-05-09 22:03:00,
2013-05-09 18:19:00,67.8,57.7,29.95,West,270,3.7,-999.0,70,-99.99,,,0.03,Acu-Link.com,2013-05-09 22:19:00,
2013-05-09 18:34:00,69.8,55.7,29.95,West,270,3.7,-999.0,61,-99.99,,,0.03,Acu-Link.com,2013-05-09 22:34:00,
2013-05-09 18:49:00,68.7,54.7,29.95,West,270,6.3,-999.0,61,-99.99,,,0.03,Acu-Link.com,2013-05-09 22:49:00,
2013-05-09 19:04:00,68.0,53.6,29.96,West,270,3.7,-999.0,60,-99.99,,,0.03,Acu-Link.com,2013-05-09 23:04:00,
2013-05-09 19:20:00,68.0,54.0,29.96,WSW,247,3.2,-999.0,61,-99.99,,,0.03,Acu-Link.com,2013-05-09 23:20:00,
2013-05-09 19:35:00,66.6,54.0,29.96,WSW,247,0.0,-999.0,64,-99.99,,,0.03,Acu-Link.com,2013-05-09 23:35:00,
2013-05-09 19:50:00,65.5,54.2,29.97,SSW,202,0.0,-999.0,67,-99.99,,,0.03,Acu-Link.com,2013-05-09 23:50:00,
2013-05-09 20:05:00,63.7,54.1,29.99,SW,225,4.7,-999.0,71,-99.99,,,0.03,Acu-Link.com,2013-05-10 00:05:00,
2013-05-09 20:20:00,62.6,54.2,29.98,South,180,2.7,-999.0,74,-99.99,,,0.03,Acu-Link.com,2013-05-10 00:20:00,
2013-05-09 20:36:00,61.5,54.6,30.00,SSW,202,2.7,-999.0,78,-99.99,,,0.03,Acu-Link.com,2013-05-10 00:36:00,
2013-05-09 20:51:00,60.8,54.2,30.00,WSW,247,2.7,-999.0,79,-99.99,,,0.03,Acu-Link.com,2013-05-10 00:51:00,
2013-05-09 21:06:00,60.1,53.9,30.01,SSW,202,3.2,-999.0,80,-99.99,,,0.03,Acu-Link.com,2013-05-10 01:06:00,
2013-05-09 21:21:00,59.7,53.9,30.01,West,270,3.2,-999.0,81,-99.99,,,0.03,Acu-Link.com,2013-05-10 01:21:00,
2013-05-09 21:36:00,59.4,53.6,30.01,South,180,2.7,-999.0,81,-99.99,,,0.03,Acu-Link.com,2013-05-10 01:36:00,
2013-05-09 21:52:00,58.6,53.5,30.01,ESE,112,1.1,-999.0,83,-99.99,,,0.03,Acu-Link.com,2013-05-10 01:52:00,
2013-05-09 22:07:00,57.9,53.4,30.01,East,90,1.1,-999.0,85,-99.99,,,0.03,Acu-Link.com,2013-05-10 02:07:00,
2013-05-09 22:22:00,57.6,53.1,30.01,SSW,202,1.7,-999.0,85,-99.99,,,0.03,Acu-Link.com,2013-05-10 02:22:00,
2013-05-09 22:37:00,57.2,53.0,30.01,South,180,1.1,-999.0,86,-99.99,,,0.03,Acu-Link.com,2013-05-10 02:37:00,
2013-05-09 22:52:00,56.8,53.0,30.01,ESE,112,1.7,-999.0,87,-99.99,,,0.03,Acu-Link.com,2013-05-10 02:52:00,
2013-05-09 23:08:00,56.8,52.7,30.01,ESE,112,3.2,-999.0,86,-99.99,,,0.03,Acu-Link.com,2013-05-10 03:08:00,
2013-05-09 23:23:00,57.4,52.6,30.00,ESE,112,3.7,-999.0,84,-99.99,,,0.03,Acu-Link.com,2013-05-10 03:23:00,
2013-05-09 23:38:00,57.0,52.5,30.01,ESE,112,1.7,-999.0,85,-99.99,,,0.03,Acu-Link.com,2013-05-10 03:38:00,
2013-05-09 23:53:00,56.8,52.7,30.01,South,180,2.7,-999.0,86,-99.99,,,0.03,Acu-Link.com,2013-05-10 03:53:00,